sensor_id;sensor_type;location;lat;lon;timestamp;temperature;humidity
68109;SHT30;54893;49.864;19.084;2023-02-11T00:03:39;-3.39;85.17
68109;SHT30;54893;49.864;19.084;2023-02-11T00:08:40;-3.39;85.57
68109;SHT30;54893;49.864;19.084;2023-02-11T00:13:41;-3.33;85.31
68109;SHT30;54893;49.864;19.084;2023-02-11T00:18:42;-3.37;85.23
68109;SHT30;54893;49.864;19.084;2023-02-11T00:23:44;-3.18;85.43
68109;SHT30;54893;49.864;19.084;2023-02-11T00:28:45;-3.00;84.94
68109;SHT30;54893;49.864;19.084;2023-02-11T00:33:46;-2.92;85.03
68109;SHT30;54893;49.864;19.084;2023-02-11T00:38:47;-2.83;85.06
68109;SHT30;54893;49.864;19.084;2023-02-11T00:43:47;-2.76;84.97
68109;SHT30;54893;49.864;19.084;2023-02-11T00:48:48;-2.72;84.89
68109;SHT30;54893;49.864;19.084;2023-02-11T00:53:50;-2.61;85.44
68109;SHT30;54893;49.864;19.084;2023-02-11T00:58:51;-2.53;85.06
68109;SHT30;54893;49.864;19.084;2023-02-11T01:03:52;-2.49;85.34
68109;SHT30;54893;49.864;19.084;2023-02-11T01:08:52;-2.51;85.31
68109;SHT30;54893;49.864;19.084;2023-02-11T01:13:53;-2.29;85.31
68109;SHT30;54893;49.864;19.084;2023-02-11T01:18:53;-2.25;85.60
68109;SHT30;54893;49.864;19.084;2023-02-11T01:23:53;-2.25;85.56
68109;SHT30;54893;49.864;19.084;2023-02-11T01:28:54;-2.35;85.86
68109;SHT30;54893;49.864;19.084;2023-02-11T01:33:55;-2.21;85.87
68109;SHT30;54893;49.864;19.084;2023-02-11T01:38:55;-2.11;86.27
68109;SHT30;54893;49.864;19.084;2023-02-11T01:43:55;-1.88;85.36
68109;SHT30;54893;49.864;19.084;2023-02-11T01:54:03;-1.64;84.66
68109;SHT30;54893;49.864;19.084;2023-02-11T01:59:30;-1.59;84.19
68109;SHT30;54893;49.864;19.084;2023-02-11T02:04:37;-1.46;83.99
68109;SHT30;54893;49.864;19.084;2023-02-11T02:09:44;-1.51;83.88
68109;SHT30;54893;49.864;19.084;2023-02-11T02:14:46;-1.39;83.56
68109;SHT30;54893;49.864;19.084;2023-02-11T02:25:15;-1.54;83.55
68109;SHT30;54893;49.864;19.084;2023-02-11T02:35:47;-1.63;83.61
68109;SHT30;54893;49.864;19.084;2023-02-11T02:41:03;-1.74;83.76
68109;SHT30;54893;49.864;19.084;2023-02-11T02:46:17;-1.74;83.87
68109;SHT30;54893;49.864;19.084;2023-02-11T03:02:17;-1.44;83.78
68109;SHT30;54893;49.864;19.084;2023-02-11T03:12:47;-0.86;83.05
68109;SHT30;54893;49.864;19.084;2023-02-11T03:17:52;-0.73;82.77
68109;SHT30;54893;49.864;19.084;2023-02-11T03:23:18;-0.52;82.18
68109;SHT30;54893;49.864;19.084;2023-02-11T03:28:31;-0.27;81.38
68109;SHT30;54893;49.864;19.084;2023-02-11T03:33:57;-0.21;81.10
68109;SHT30;54893;49.864;19.084;2023-02-11T03:38:59;-0.27;80.96
68109;SHT30;54893;49.864;19.084;2023-02-11T03:44:01;-0.08;80.03
68109;SHT30;54893;49.864;19.084;2023-02-11T03:49:05;-0.19;80.45
68109;SHT30;54893;49.864;19.084;2023-02-11T03:54:12;-0.13;79.79
68109;SHT30;54893;49.864;19.084;2023-02-11T03:59:14;-0.31;80.41
68109;SHT30;54893;49.864;19.084;2023-02-11T04:04:14;-0.24;79.96
68109;SHT30;54893;49.864;19.084;2023-02-11T04:09:15;-0.22;79.69
68109;SHT30;54893;49.864;19.084;2023-02-11T04:14:15;-0.18;79.86
68109;SHT30;54893;49.864;19.084;2023-02-11T04:19:15;-0.18;79.71
68109;SHT30;54893;49.864;19.084;2023-02-11T04:24:16;-0.17;79.72
68109;SHT30;54893;49.864;19.084;2023-02-11T04:29:16;-0.10;79.43
68109;SHT30;54893;49.864;19.084;2023-02-11T04:34:16;-0.18;79.40
68109;SHT30;54893;49.864;19.084;2023-02-11T04:39:17;-0.22;79.66
68109;SHT30;54893;49.864;19.084;2023-02-11T04:44:17;-0.21;79.56
68109;SHT30;54893;49.864;19.084;2023-02-11T04:49:18;-0.17;79.51
68109;SHT30;54893;49.864;19.084;2023-02-11T04:54:18;-0.27;79.66
68109;SHT30;54893;49.864;19.084;2023-02-11T04:59:19;-0.15;79.37
68109;SHT30;54893;49.864;19.084;2023-02-11T05:04:19;0.16;78.43
68109;SHT30;54893;49.864;19.084;2023-02-11T05:09:19;0.03;78.85
68109;SHT30;54893;49.864;19.084;2023-02-11T05:14:20;-0.03;79.29
68109;SHT30;54893;49.864;19.084;2023-02-11T05:19:20;0.07;79.28
68109;SHT30;54893;49.864;19.084;2023-02-11T05:24:20;0.11;79.45
68109;SHT30;54893;49.864;19.084;2023-02-11T05:29:21;0.27;78.74
68109;SHT30;54893;49.864;19.084;2023-02-11T05:34:21;0.26;78.68
68109;SHT30;54893;49.864;19.084;2023-02-11T05:39:22;0.33;78.50
68109;SHT30;54893;49.864;19.084;2023-02-11T05:44:22;0.31;78.44
68109;SHT30;54893;49.864;19.084;2023-02-11T05:49:22;0.46;77.79
68109;SHT30;54893;49.864;19.084;2023-02-11T05:54:23;0.40;77.81
68109;SHT30;54893;49.864;19.084;2023-02-11T05:59:23;0.44;77.74
68109;SHT30;54893;49.864;19.084;2023-02-11T06:04:23;0.46;77.38
68109;SHT30;54893;49.864;19.084;2023-02-11T06:09:24;0.46;77.27
68109;SHT30;54893;49.864;19.084;2023-02-11T06:14:25;0.39;77.88
68109;SHT30;54893;49.864;19.084;2023-02-11T06:19:25;0.41;77.74
68109;SHT30;54893;49.864;19.084;2023-02-11T06:24:25;0.51;77.33
68109;SHT30;54893;49.864;19.084;2023-02-11T06:29:26;0.62;76.86
68109;SHT30;54893;49.864;19.084;2023-02-11T06:34:26;0.58;77.00
68109;SHT30;54893;49.864;19.084;2023-02-11T06:39:27;0.65;76.60
68109;SHT30;54893;49.864;19.084;2023-02-11T06:44:27;0.78;76.00
68109;SHT30;54893;49.864;19.084;2023-02-11T06:49:27;0.85;75.62
68109;SHT30;54893;49.864;19.084;2023-02-11T06:54:28;0.72;76.15
68109;SHT30;54893;49.864;19.084;2023-02-11T06:59:28;0.74;76.13
68109;SHT30;54893;49.864;19.084;2023-02-11T07:04:28;0.80;75.96
68109;SHT30;54893;49.864;19.084;2023-02-11T07:09:29;0.87;75.57
68109;SHT30;54893;49.864;19.084;2023-02-11T07:14:29;0.99;75.28
68109;SHT30;54893;49.864;19.084;2023-02-11T07:19:29;1.04;75.34
68109;SHT30;54893;49.864;19.084;2023-02-11T07:24:30;1.26;74.72
68109;SHT30;54893;49.864;19.084;2023-02-11T07:29:30;1.36;74.77
68109;SHT30;54893;49.864;19.084;2023-02-11T07:34:31;1.48;74.67
68109;SHT30;54893;49.864;19.084;2023-02-11T07:39:32;1.52;74.31
68109;SHT30;54893;49.864;19.084;2023-02-11T07:44:32;1.58;74.44
68109;SHT30;54893;49.864;19.084;2023-02-11T07:49:33;1.49;74.54
68109;SHT30;54893;49.864;19.084;2023-02-11T07:54:34;1.49;74.36
68109;SHT30;54893;49.864;19.084;2023-02-11T07:59:34;1.52;74.11
68109;SHT30;54893;49.864;19.084;2023-02-11T08:04:34;1.62;73.51
68109;SHT30;54893;49.864;19.084;2023-02-11T08:09:35;1.90;72.84
68109;SHT30;54893;49.864;19.084;2023-02-11T08:14:35;2.16;72.06
68109;SHT30;54893;49.864;19.084;2023-02-11T08:19:37;2.60;71.00
68109;SHT30;54893;49.864;19.084;2023-02-11T08:24:38;3.09;69.82
68109;SHT30;54893;49.864;19.084;2023-02-11T08:29:38;2.48;70.95
68109;SHT30;54893;49.864;19.084;2023-02-11T08:34:38;2.94;69.85
68109;SHT30;54893;49.864;19.084;2023-02-11T08:39:39;3.29;68.73
68109;SHT30;54893;49.864;19.084;2023-02-11T08:44:39;4.20;67.02
68109;SHT30;54893;49.864;19.084;2023-02-11T08:49:40;3.67;68.62
68109;SHT30;54893;49.864;19.084;2023-02-11T08:54:41;3.48;68.59
68109;SHT30;54893;49.864;19.084;2023-02-11T08:59:42;3.60;68.55
68109;SHT30;54893;49.864;19.084;2023-02-11T09:04:42;3.77;67.62
68109;SHT30;54893;49.864;19.084;2023-02-11T09:09:42;3.53;68.44
68109;SHT30;54893;49.864;19.084;2023-02-11T09:14:43;3.79;67.65
68109;SHT30;54893;49.864;19.084;2023-02-11T09:19:43;3.93;67.42
68109;SHT30;54893;49.864;19.084;2023-02-11T09:24:43;3.98;67.86
68109;SHT30;54893;49.864;19.084;2023-02-11T09:29:44;4.10;67.38
68109;SHT30;54893;49.864;19.084;2023-02-11T09:34:44;3.87;67.43
68109;SHT30;54893;49.864;19.084;2023-02-11T09:39:45;4.01;67.64
68109;SHT30;54893;49.864;19.084;2023-02-11T09:44:46;4.22;67.83
68109;SHT30;54893;49.864;19.084;2023-02-11T09:50:33;4.13;67.08
68109;SHT30;54893;49.864;19.084;2023-02-11T09:55:22;4.13;67.88
68109;SHT30;54893;49.864;19.084;2023-02-11T10:00:30;4.18;67.59
68109;SHT30;54893;49.864;19.084;2023-02-11T10:05:58;4.25;67.46
68109;SHT30;54893;49.864;19.084;2023-02-11T10:21:43;4.36;67.63
68109;SHT30;54893;49.864;19.084;2023-02-11T10:26:47;4.51;67.94
68109;SHT30;54893;49.864;19.084;2023-02-11T10:31:49;4.40;67.96
68109;SHT30;54893;49.864;19.084;2023-02-11T10:36:49;4.57;68.13
68109;SHT30;54893;49.864;19.084;2023-02-11T10:41:53;4.60;68.10
68109;SHT30;54893;49.864;19.084;2023-02-11T10:46:56;4.76;67.61
68109;SHT30;54893;49.864;19.084;2023-02-11T10:57:17;4.64;68.16
68109;SHT30;54893;49.864;19.084;2023-02-11T11:02:22;4.65;68.90
68109;SHT30;54893;49.864;19.084;2023-02-11T11:07:26;4.64;68.65
68109;SHT30;54893;49.864;19.084;2023-02-11T11:17:29;5.05;68.77
68109;SHT30;54893;49.864;19.084;2023-02-11T11:22:29;5.00;68.67
68109;SHT30;54893;49.864;19.084;2023-02-11T11:27:30;5.12;68.60
68109;SHT30;54893;49.864;19.084;2023-02-11T11:32:31;5.25;68.34
68109;SHT30;54893;49.864;19.084;2023-02-11T11:37:35;5.25;68.54
68109;SHT30;54893;49.864;19.084;2023-02-11T11:42:37;5.50;68.12
68109;SHT30;54893;49.864;19.084;2023-02-11T11:47:42;5.53;68.01
68109;SHT30;54893;49.864;19.084;2023-02-11T11:58:18;5.20;69.41
68109;SHT30;54893;49.864;19.084;2023-02-11T12:03:43;5.23;69.60
68109;SHT30;54893;49.864;19.084;2023-02-11T12:19:24;4.65;71.86
68109;SHT30;54893;49.864;19.084;2023-02-11T12:25:11;4.69;72.22
68109;SHT30;54893;49.864;19.084;2023-02-11T12:30:21;4.40;72.52
68109;SHT30;54893;49.864;19.084;2023-02-11T12:47:12;4.03;74.06
68109;SHT30;54893;49.864;19.084;2023-02-11T12:52:29;3.90;74.57
68109;SHT30;54893;49.864;19.084;2023-02-11T12:57:34;3.97;74.42
68109;SHT30;54893;49.864;19.084;2023-02-11T13:02:45;3.93;74.21
68109;SHT30;54893;49.864;19.084;2023-02-11T13:07:49;3.73;75.45
68109;SHT30;54893;49.864;19.084;2023-02-11T13:12:52;3.59;75.96
68109;SHT30;54893;49.864;19.084;2023-02-11T13:18:24;3.49;76.63
68109;SHT30;54893;49.864;19.084;2023-02-11T13:33:55;3.63;76.70
68109;SHT30;54893;49.864;19.084;2023-02-11T13:38:58;3.44;77.48
68109;SHT30;54893;49.864;19.084;2023-02-11T13:49:17;3.40;77.98
68109;SHT30;54893;49.864;19.084;2023-02-11T13:54:23;3.38;78.08
68109;SHT30;54893;49.864;19.084;2023-02-11T14:04:24;3.36;78.60
68109;SHT30;54893;49.864;19.084;2023-02-11T14:09:44;3.33;78.93
68109;SHT30;54893;49.864;19.084;2023-02-11T14:20:32;3.35;79.60
68109;SHT30;54893;49.864;19.084;2023-02-11T14:25:33;3.36;79.98
68109;SHT30;54893;49.864;19.084;2023-02-11T14:31:08;3.29;80.42
68109;SHT30;54893;49.864;19.084;2023-02-11T14:36:32;3.20;80.81
68109;SHT30;54893;49.864;19.084;2023-02-11T14:41:41;3.23;80.89
68109;SHT30;54893;49.864;19.084;2023-02-11T14:46:46;3.16;81.52
68109;SHT30;54893;49.864;19.084;2023-02-11T14:51:47;3.13;81.64
68109;SHT30;54893;49.864;19.084;2023-02-11T14:57:07;3.35;81.29
68109;SHT30;54893;49.864;19.084;2023-02-11T15:02:26;3.26;82.16
68109;SHT30;54893;49.864;19.084;2023-02-11T15:07:27;3.15;82.80
68109;SHT30;54893;49.864;19.084;2023-02-11T15:12:28;3.35;82.06
68109;SHT30;54893;49.864;19.084;2023-02-11T15:17:30;3.23;82.80
68109;SHT30;54893;49.864;19.084;2023-02-11T15:22:33;3.08;83.61
68109;SHT30;54893;49.864;19.084;2023-02-11T15:27:41;3.01;84.60
68109;SHT30;54893;49.864;19.084;2023-02-11T15:32:42;3.08;84.57
68109;SHT30;54893;49.864;19.084;2023-02-11T15:37:44;2.95;85.35
68109;SHT30;54893;49.864;19.084;2023-02-11T15:43:02;2.98;86.04
68109;SHT30;54893;49.864;19.084;2023-02-11T15:53:23;2.78;87.74
68109;SHT30;54893;49.864;19.084;2023-02-11T15:58:24;2.71;88.41
68109;SHT30;54893;49.864;19.084;2023-02-11T16:03:27;2.54;89.15
68109;SHT30;54893;49.864;19.084;2023-02-11T16:08:31;2.57;89.72
68109;SHT30;54893;49.864;19.084;2023-02-11T16:13:44;2.40;90.27
68109;SHT30;54893;49.864;19.084;2023-02-11T16:18:53;2.38;90.82
68109;SHT30;54893;49.864;19.084;2023-02-11T16:23:56;2.18;91.16
68109;SHT30;54893;49.864;19.084;2023-02-11T16:29:12;2.17;92.02
68109;SHT30;54893;49.864;19.084;2023-02-11T16:34:22;2.36;92.04
68109;SHT30;54893;49.864;19.084;2023-02-11T16:39:22;2.23;93.07
68109;SHT30;54893;49.864;19.084;2023-02-11T16:44:23;2.10;94.06
68109;SHT30;54893;49.864;19.084;2023-02-11T16:49:27;2.04;93.96
68109;SHT30;54893;49.864;19.084;2023-02-11T16:54:28;2.02;94.46
68109;SHT30;54893;49.864;19.084;2023-02-11T16:59:28;1.97;94.81
68109;SHT30;54893;49.864;19.084;2023-02-11T17:04:30;2.00;95.00
68109;SHT30;54893;49.864;19.084;2023-02-11T17:09:32;2.00;94.94
68109;SHT30;54893;49.864;19.084;2023-02-11T17:14:32;1.94;94.98
68109;SHT30;54893;49.864;19.084;2023-02-11T17:19:33;1.89;95.37
68109;SHT30;54893;49.864;19.084;2023-02-11T17:24:33;2.03;95.30
68109;SHT30;54893;49.864;19.084;2023-02-11T17:29:33;2.06;95.37
68109;SHT30;54893;49.864;19.084;2023-02-11T17:34:34;1.97;96.02
68109;SHT30;54893;49.864;19.084;2023-02-11T17:39:36;2.00;96.11
68109;SHT30;54893;49.864;19.084;2023-02-11T17:44:36;2.00;96.01
68109;SHT30;54893;49.864;19.084;2023-02-11T17:49:37;2.03;96.38
68109;SHT30;54893;49.864;19.084;2023-02-11T17:54:38;2.00;96.24
68109;SHT30;54893;49.864;19.084;2023-02-11T17:59:38;2.04;96.18
68109;SHT30;54893;49.864;19.084;2023-02-11T18:04:39;2.03;96.30
68109;SHT30;54893;49.864;19.084;2023-02-11T18:09:40;2.09;96.08
68109;SHT30;54893;49.864;19.084;2023-02-11T18:14:40;2.03;96.69
68109;SHT30;54893;49.864;19.084;2023-02-11T18:19:40;2.18;96.19
68109;SHT30;54893;49.864;19.084;2023-02-11T18:24:41;2.13;96.47
68109;SHT30;54893;49.864;19.084;2023-02-11T18:29:41;2.16;96.36
68109;SHT30;54893;49.864;19.084;2023-02-11T18:34:41;2.13;96.40
68109;SHT30;54893;49.864;19.084;2023-02-11T18:39:43;2.20;96.49
68109;SHT30;54893;49.864;19.084;2023-02-11T18:44:43;2.36;96.18
68109;SHT30;54893;49.864;19.084;2023-02-11T18:49:43;2.30;96.36
68109;SHT30;54893;49.864;19.084;2023-02-11T18:54:44;2.30;96.44
68109;SHT30;54893;49.864;19.084;2023-02-11T18:59:44;2.37;96.32
68109;SHT30;54893;49.864;19.084;2023-02-11T19:04:44;2.33;96.83
68109;SHT30;54893;49.864;19.084;2023-02-11T19:09:45;2.40;96.74
68109;SHT30;54893;49.864;19.084;2023-02-11T19:14:45;2.40;96.97
68109;SHT30;54893;49.864;19.084;2023-02-11T19:19:45;2.40;96.88
68109;SHT30;54893;49.864;19.084;2023-02-11T19:24:46;2.40;97.08
68109;SHT30;54893;49.864;19.084;2023-02-11T19:29:46;2.48;97.06
68109;SHT30;54893;49.864;19.084;2023-02-11T19:34:47;2.44;97.15
68109;SHT30;54893;49.864;19.084;2023-02-11T19:39:47;2.51;97.18
68109;SHT30;54893;49.864;19.084;2023-02-11T19:44:47;2.54;97.21
68109;SHT30;54893;49.864;19.084;2023-02-11T19:49:48;2.68;97.07
68109;SHT30;54893;49.864;19.084;2023-02-11T19:54:48;2.78;96.97
68109;SHT30;54893;49.864;19.084;2023-02-11T19:59:48;2.66;97.25
68109;SHT30;54893;49.864;19.084;2023-02-11T20:04:49;2.65;97.19
68109;SHT30;54893;49.864;19.084;2023-02-11T20:09:49;2.70;97.41
68109;SHT30;54893;49.864;19.084;2023-02-11T20:14:52;2.64;97.53
68109;SHT30;54893;49.864;19.084;2023-02-11T20:19:52;2.78;97.29
68109;SHT30;54893;49.864;19.084;2023-02-11T20:24:53;2.77;97.38
68109;SHT30;54893;49.864;19.084;2023-02-11T20:29:54;2.84;97.35
68109;SHT30;54893;49.864;19.084;2023-02-11T20:34:55;2.77;97.57
68109;SHT30;54893;49.864;19.084;2023-02-11T20:39:55;2.87;97.23
68109;SHT30;54893;49.864;19.084;2023-02-11T20:44:57;2.81;97.41
68109;SHT30;54893;49.864;19.084;2023-02-11T20:49:58;2.87;97.60
68109;SHT30;54893;49.864;19.084;2023-02-11T20:54:58;2.87;97.22
68109;SHT30;54893;49.864;19.084;2023-02-11T21:00:00;2.80;97.59
68109;SHT30;54893;49.864;19.084;2023-02-11T21:05:01;2.78;97.59
68109;SHT30;54893;49.864;19.084;2023-02-11T21:10:01;2.80;97.71
68109;SHT30;54893;49.864;19.084;2023-02-11T21:15:02;2.75;97.71
68109;SHT30;54893;49.864;19.084;2023-02-11T21:20:08;2.71;97.84
68109;SHT30;54893;49.864;19.084;2023-02-11T21:25:09;2.72;97.88
68109;SHT30;54893;49.864;19.084;2023-02-11T21:30:10;2.66;97.81
68109;SHT30;54893;49.864;19.084;2023-02-11T21:35:10;2.60;98.10
68109;SHT30;54893;49.864;19.084;2023-02-11T21:40:11;2.58;98.10
68109;SHT30;54893;49.864;19.084;2023-02-11T21:45:13;2.60;98.43
68109;SHT30;54893;49.864;19.084;2023-02-11T21:50:14;2.62;98.22
68109;SHT30;54893;49.864;19.084;2023-02-11T21:55:14;2.61;98.20
68109;SHT30;54893;49.864;19.084;2023-02-11T22:00:16;2.65;98.25
68109;SHT30;54893;49.864;19.084;2023-02-11T22:05:16;2.64;98.22
68109;SHT30;54893;49.864;19.084;2023-02-11T22:10:17;2.65;98.13
68109;SHT30;54893;49.864;19.084;2023-02-11T22:15:18;2.70;98.34
68109;SHT30;54893;49.864;19.084;2023-02-11T22:20:18;2.72;98.16
68109;SHT30;54893;49.864;19.084;2023-02-11T22:25:19;2.71;98.24
68109;SHT30;54893;49.864;19.084;2023-02-11T22:30:19;2.68;98.37
68109;SHT30;54893;49.864;19.084;2023-02-11T22:35:19;2.74;98.70
68109;SHT30;54893;49.864;19.084;2023-02-11T22:40:20;2.72;98.33
68109;SHT30;54893;49.864;19.084;2023-02-11T22:45:20;2.72;98.73
68109;SHT30;54893;49.864;19.084;2023-02-11T22:50:20;2.70;98.52
68109;SHT30;54893;49.864;19.084;2023-02-11T22:55:21;2.71;98.92
68109;SHT30;54893;49.864;19.084;2023-02-11T23:00:23;2.66;98.77
68109;SHT30;54893;49.864;19.084;2023-02-11T23:05:25;2.71;99.01
68109;SHT30;54893;49.864;19.084;2023-02-11T23:10:25;2.71;98.71
68109;SHT30;54893;49.864;19.084;2023-02-11T23:15:26;2.77;98.75
68109;SHT30;54893;49.864;19.084;2023-02-11T23:20:26;2.72;98.77
68109;SHT30;54893;49.864;19.084;2023-02-11T23:25:26;2.72;98.72
68109;SHT30;54893;49.864;19.084;2023-02-11T23:30:27;2.70;98.95
68109;SHT30;54893;49.864;19.084;2023-02-11T23:35:27;2.66;98.91
68109;SHT30;54893;49.864;19.084;2023-02-11T23:40:28;2.85;98.80
68109;SHT30;54893;49.864;19.084;2023-02-11T23:45:28;2.80;98.87
68109;SHT30;54893;49.864;19.084;2023-02-11T23:50:28;2.82;98.94
68109;SHT30;54893;49.864;19.084;2023-02-11T23:55:29;2.80;99.21
